createdAt,value
2023-05-21T02:33:42.609Z,22.17
2023-05-21T02:43:33.932Z,22.88
2023-05-21T15:20:37.018Z,11.38
2023-05-21T15:23:23.489Z,3.60
2023-05-21T15:26:09.280Z,4.07
2023-05-21T15:28:55.584Z,9.23
2023-05-21T15:31:41.007Z,3.28
2023-05-21T15:34:26.858Z,8.98
2023-05-21T15:37:15.412Z,4.63
2023-05-21T15:40:02.066Z,8.80
2023-05-21T15:42:47.720Z,4.57
2023-05-21T15:45:33.537Z,3.30
2023-05-21T15:48:23.091Z,5.53
2023-05-21T15:51:09.225Z,3.97
2023-05-21T15:53:54.758Z,4.57
2023-05-21T15:56:43.226Z,7.10
2023-05-21T15:59:29.777Z,7.80
2023-05-21T16:02:15.722Z,8.50
2023-05-21T16:05:01.588Z,4.35
2023-05-21T16:07:48.046Z,3.95
2023-05-21T16:10:33.454Z,6.05
2023-05-21T16:13:19.442Z,3.03
2023-05-21T16:16:05.275Z,9.02
2023-05-21T16:18:51.379Z,4.85
2023-05-21T16:21:38.324Z,5.63
2023-05-21T16:24:24.608Z,3.83
2023-05-21T16:27:10.159Z,3.42
2023-05-21T16:29:56.234Z,5.13
2023-05-21T16:32:42.033Z,5.57
2023-05-21T16:35:27.816Z,4.03
2023-05-21T16:38:13.621Z,3.78
2023-05-21T16:40:59.429Z,6.15
2023-05-21T16:43:45.582Z,3.13
2023-05-21T16:46:31.812Z,7.13
2023-05-21T16:49:17.929Z,4.95
2023-05-21T16:52:03.900Z,4.72
2023-05-21T16:54:49.383Z,4.47
2023-05-21T16:57:35.748Z,3.90
2023-05-21T17:00:21.598Z,4.38
2023-05-21T17:03:07.483Z,6.38
2023-05-21T17:05:53.334Z,5.07
2023-05-21T17:08:39.322Z,4.43
2023-05-21T17:11:25.181Z,4.20
2023-05-21T17:14:13.505Z,4.18
2023-05-21T17:17:03.231Z,4.13
2023-05-21T17:19:49.359Z,5.70
2023-05-21T17:22:34.862Z,4.53
2023-05-21T17:25:21.040Z,5.90
2023-05-21T17:28:06.740Z,4.40
2023-05-21T17:30:52.755Z,8.15
2023-05-21T17:33:39.754Z,4.57
2023-05-21T17:36:25.866Z,5.03
2023-05-21T17:39:11.583Z,7.03
2023-05-21T17:41:57.700Z,4.38
2023-05-21T17:44:43.791Z,4.82
2023-05-21T17:47:29.705Z,7.65
2023-05-21T17:50:15.221Z,5.25
2023-05-21T17:53:00.884Z,7.07
2023-05-21T17:55:46.434Z,8.32
2023-05-21T17:58:32.566Z,5.45
2023-05-21T18:01:18.706Z,3.78
2023-05-21T18:04:06.186Z,6.70
2023-05-21T18:06:52.200Z,6.63
2023-05-21T18:09:38.189Z,5.00
2023-05-21T18:12:23.719Z,6.80
2023-05-21T18:15:09.767Z,6.03
2023-05-21T18:17:56.004Z,5.85
2023-05-21T18:20:42.056Z,6.63
2023-05-21T18:23:28.877Z,6.15
2023-05-21T18:26:15.705Z,5.35
2023-05-21T18:29:00.983Z,8.30
2023-05-21T18:31:46.959Z,9.02
2023-05-21T18:34:33.228Z,7.20
2023-05-21T18:37:19.117Z,6.57
2023-05-21T18:40:08.364Z,8.75
2023-05-21T18:42:54.495Z,11.77
2023-05-21T18:45:40.731Z,5.20
2023-05-21T18:48:26.773Z,6.80
2023-05-21T18:51:12.415Z,7.53
2023-05-21T18:53:58.725Z,5.57
2023-05-21T18:56:44.627Z,7.05
2023-05-21T18:59:31.275Z,8.43
2023-05-21T19:02:17.235Z,10.45
2023-05-21T19:05:03.529Z,11.45
2023-05-21T19:07:49.639Z,14.30
2023-05-21T19:13:23.545Z,13.80
2023-05-21T19:16:11.431Z,11.05
2023-05-21T19:18:57.253Z,11.02
2023-05-21T19:21:43.561Z,9.50
2023-05-21T19:24:29.601Z,11.27
2023-05-21T19:27:16.375Z,12.13
2023-05-21T19:30:02.262Z,9.07
2023-05-21T19:32:48.707Z,12.40
2023-05-21T19:35:34.995Z,8.93
2023-05-21T19:38:21.126Z,9.25
2023-05-21T19:41:06.452Z,10.13
2023-05-21T19:43:52.181Z,8.63
2023-05-21T19:46:37.817Z,13.40
2023-05-21T19:49:23.800Z,10.88
2023-05-21T19:52:10.565Z,11.65
2023-05-21T19:55:03.259Z,10.85
2023-05-21T19:57:49.392Z,13.10
2023-05-21T20:00:35.773Z,13.32
2023-05-21T20:03:22.049Z,8.93
2023-05-21T20:06:07.822Z,6.93
2023-05-21T20:08:53.936Z,5.82
2023-05-21T20:11:40.065Z,8.25
2023-05-21T20:14:25.875Z,8.63
2023-05-21T20:17:12.046Z,7.78
2023-05-21T20:19:59.111Z,6.60
2023-05-21T20:22:45.969Z,7.43
2023-05-21T20:25:31.958Z,10.52
2023-05-21T20:28:19.392Z,8.60
2023-05-21T20:31:06.067Z,13.32
2023-05-21T20:33:53.723Z,7.35
2023-05-21T20:36:43.541Z,8.48
2023-05-21T20:39:29.885Z,8.32
2023-05-21T20:42:16.207Z,8.32
2023-05-21T20:45:03.212Z,6.28
2023-05-21T20:47:50.643Z,11.43
2023-05-21T20:50:37.481Z,10.07
2023-05-21T20:53:24.049Z,9.63
2023-05-21T20:56:11.697Z,11.25
2023-05-21T20:58:58.066Z,8.07
2023-05-21T21:01:44.037Z,6.07
2023-05-21T21:04:30.073Z,6.05
2023-05-21T21:07:18.153Z,10.90
2023-05-21T21:10:04.628Z,16.05
2023-05-21T21:12:50.898Z,9.27
2023-05-21T21:15:36.901Z,9.38
2023-05-21T21:18:22.691Z,12.50
2023-05-21T21:21:08.072Z,11.43
2023-05-21T21:23:53.922Z,8.45
2023-05-21T21:26:40.056Z,10.80
2023-05-21T21:29:26.434Z,10.23
2023-05-21T21:32:12.430Z,16.98
2023-05-21T21:34:58.652Z,10.25
2023-05-21T21:37:44.264Z,14.13
2023-05-21T21:40:30.449Z,11.93
2023-05-21T21:43:15.833Z,13.85
2023-05-21T21:46:01.964Z,14.88
2023-05-21T21:48:47.785Z,13.20
2023-05-21T21:51:33.986Z,12.90
2023-05-21T21:54:19.941Z,11.00
2023-05-21T21:57:05.857Z,9.93
2023-05-21T21:59:51.635Z,9.57
2023-05-21T22:02:37.900Z,10.55
2023-05-21T22:05:23.636Z,13.43
2023-05-21T22:08:10.053Z,11.10
2023-05-21T22:10:56.245Z,13.63
2023-05-21T22:13:42.002Z,12.85
2023-05-21T22:16:28.346Z,10.00
2023-05-21T22:19:16.036Z,12.63
2023-05-21T22:22:04.050Z,11.90
2023-05-21T22:24:49.961Z,15.80
2023-05-21T22:27:36.525Z,12.63
2023-05-21T22:30:23.056Z,14.05
2023-05-21T22:33:09.096Z,16.02
2023-05-21T22:35:55.485Z,15.88
2023-05-21T22:38:40.965Z,20.90
2023-05-21T22:41:27.129Z,17.00
2023-05-21T22:44:12.507Z,14.73
2023-05-21T22:47:01.057Z,16.50
2023-05-21T22:49:47.857Z,17.67
2023-05-21T22:52:34.576Z,17.08
2023-05-21T22:55:20.308Z,18.70
2023-05-21T22:58:06.431Z,15.48
2023-05-21T23:00:51.790Z,19.05
2023-05-21T23:03:37.634Z,20.70
2023-05-21T23:06:23.423Z,22.17
2023-05-21T23:09:09.100Z,22.15
2023-05-21T23:11:54.572Z,17.58
2023-05-21T23:14:40.445Z,16.67
2023-05-21T23:17:26.069Z,17.13
2023-05-21T23:20:12.330Z,18.17
2023-05-21T23:22:57.905Z,15.95
2023-05-21T23:25:44.004Z,11.60
2023-05-21T23:28:29.789Z,13.40
2023-05-21T23:31:15.901Z,10.35
2023-05-21T23:34:02.811Z,10.20
2023-05-21T23:36:48.624Z,7.57
2023-05-21T23:39:34.403Z,10.27
2023-05-21T23:42:20.367Z,7.43
2023-05-21T23:45:06.491Z,10.80
2023-05-21T23:47:52.465Z,8.80
2023-05-21T23:50:38.757Z,9.13
2023-05-21T23:53:25.827Z,10.15
2023-05-21T23:56:11.651Z,11.52
2023-05-21T23:58:57.740Z,8.45
